Irving Johnson — WDB3153 — position and weather

sailwx.info

Track history (hours):
 
Tides and Currents Weather Stations Pressure Air Temp Water Temp Dewpoint Dewpoint Depression Visibility Wind Speed Wind Dir Waves Ship Positions

Irving Johnson (United States)

Ship's website: http://www.lamitopsail.org/

Owner: Los Angeles Maritime Institute, San Pedro, CA. More information available from US FCC via Universal Licensing System and Coast Guard Vessel Documentation Center.

Last reported at 2017-Sep-24 23:49 UTC. Time now 2017-Sep-25 11:52 UTC.
Position N 33°44' W 118°17'.

; draft 4 m.

Type: Sailing vessel. MMSI: 369725000.

Date/timePositionNaut miles runAvg speedWind from/ knotsBaromVisibWave heightAir tempDewpointWater temp
2017-Sep-24 23:49N 33°44' W 118°17'0 0.1
2017-Sep-24 23:30N 33°44' W 118°17'1 1.0
2017-Sep-24 23:00N 33°44' W 118°16'1 1.2
2017-Sep-24 22:31N 33°43' W 118°16'0 0.6
2017-Sep-24 21:50N 33°43' W 118°16'1 2.0
2017-Sep-24 21:30N 33°44' W 118°16'0 0.5
2017-Sep-24 20:59N 33°44' W 118°17'0 0.0
2017-Sep-24 20:30N 33°44' W 118°17'3 0.1
2017-Sep-24 02:14N 33°43' W 118°13'1 4.4
2017-Sep-24 02:00N 33°43' W 118°14'2 3.2
2017-Sep-24 01:29N 33°42' W 118°16'1 2.3
2017-Sep-24 01:00N 33°43' W 118°15'2 4.1
2017-Sep-24 00:25N 33°45' W 118°17'1 0.0
2017-Sep-21 20:51N 33°44' W 118°17'0 0.7
2017-Sep-21 20:30N 33°44' W 118°16'2 3.4
2017-Sep-21 20:00N 33°43' W 118°15'1 1.6
2017-Sep-21 19:07N 33°41' W 118°15'1 4.0
2017-Sep-21 18:56N 33°42' W 118°15'1 3.4
2017-Sep-21 18:30N 33°43' W 118°16'1 1.7
2017-Sep-21 17:52N 33°44' W 118°17'0 0.0
2017-Sep-21 17:22N 33°44' W 118°17'0 0.0
2017-Sep-21 16:59N 33°44' W 118°17'0 0.0
2017-Sep-19 20:20N 33°44' W 118°17'0 0.5
2017-Sep-19 20:00N 33°44' W 118°16'2 3.0
2017-Sep-19 19:30N 33°43' W 118°15'1 2.6
2017-Sep-19 18:59N 33°44' W 118°14'1 2.4
2017-Sep-19 18:30N 33°43' W 118°15'1 2.3
2017-Sep-19 18:00N 33°43' W 118°16'1 0.0
2017-Sep-18 01:06N 33°44' W 118°17'0 0.0
2017-Sep-18 01:00N 33°44' W 118°17'2 2.8
2017-Sep-18 00:27N 33°43' W 118°15'5 3.4
2017-Sep-17 23:05N 33°39' W 118°13'1 5.9
2017-Sep-17 22:59N 33°39' W 118°13'3 5.8
2017-Sep-17 22:31N 33°42' W 118°15'2 3.9
2017-Sep-17 22:01N 33°43' W 118°16'1 1.5
2017-Sep-17 21:25N 33°44' W 118°17'0 0.0
2017-Sep-17 21:01N 33°44' W 118°17'0 0.0
2017-Sep-17 20:22N 33°44' W 118°17'  
Track history (hours):
 
Tides and Currents Weather Stations Pressure Air Temp Water Temp Dewpoint Dewpoint Depression Visibility Wind Speed Wind Dir Waves Ship Positions

Irving Johnson (United States)

Ship's website: http://www.lamitopsail.org/

Owner: Los Angeles Maritime Institute, San Pedro, CA. More information available from US FCC via Universal Licensing System and Coast Guard Vessel Documentation Center.

Last reported at 2017-Sep-24 23:49 UTC. Time now 2017-Sep-25 11:52 UTC.
Position N 33°44' W 118°17'.

; draft 4 m.

Type: Sailing vessel. MMSI: 369725000.

Date/timePositionNaut miles runAvg speedWind from/ knotsBaromVisibWave heightAir tempDewpointWater temp
2017-Sep-24 23:49N 33°44' W 118°17'0 0.1
2017-Sep-24 23:30N 33°44' W 118°17'1 1.0
2017-Sep-24 23:00N 33°44' W 118°16'1 1.2
2017-Sep-24 22:31N 33°43' W 118°16'0 0.6
2017-Sep-24 21:50N 33°43' W 118°16'1 2.0
2017-Sep-24 21:30N 33°44' W 118°16'0 0.5
2017-Sep-24 20:59N 33°44' W 118°17'0 0.0
2017-Sep-24 20:30N 33°44' W 118°17'3 0.1
2017-Sep-24 02:14N 33°43' W 118°13'1 4.4
2017-Sep-24 02:00N 33°43' W 118°14'2 3.2
2017-Sep-24 01:29N 33°42' W 118°16'1 2.3
2017-Sep-24 01:00N 33°43' W 118°15'2 4.1
2017-Sep-24 00:25N 33°45' W 118°17'1 0.0
2017-Sep-21 20:51N 33°44' W 118°17'0 0.7
2017-Sep-21 20:30N 33°44' W 118°16'2 3.4
2017-Sep-21 20:00N 33°43' W 118°15'1 1.6
2017-Sep-21 19:07N 33°41' W 118°15'1 4.0
2017-Sep-21 18:56N 33°42' W 118°15'1 3.4
2017-Sep-21 18:30N 33°43' W 118°16'1 1.7
2017-Sep-21 17:52N 33°44' W 118°17'0 0.0
2017-Sep-21 17:22N 33°44' W 118°17'0 0.0
2017-Sep-21 16:59N 33°44' W 118°17'0 0.0
2017-Sep-19 20:20N 33°44' W 118°17'0 0.5
2017-Sep-19 20:00N 33°44' W 118°16'2 3.0
2017-Sep-19 19:30N 33°43' W 118°15'1 2.6
2017-Sep-19 18:59N 33°44' W 118°14'1 2.4
2017-Sep-19 18:30N 33°43' W 118°15'1 2.3
2017-Sep-19 18:00N 33°43' W 118°16'1 0.0
2017-Sep-18 01:06N 33°44' W 118°17'0 0.0
2017-Sep-18 01:00N 33°44' W 118°17'2 2.8
2017-Sep-18 00:27N 33°43' W 118°15'5 3.4
2017-Sep-17 23:05N 33°39' W 118°13'1 5.9
2017-Sep-17 22:59N 33°39' W 118°13'3 5.8
2017-Sep-17 22:31N 33°42' W 118°15'2 3.9
2017-Sep-17 22:01N 33°43' W 118°16'1 1.5
2017-Sep-17 21:25N 33°44' W 118°17'0 0.0
2017-Sep-17 21:01N 33°44' W 118°17'0 0.0
2017-Sep-17 20:22N 33°44' W 118°17'  

Dump ship's entire track history